createdAt,value
2018-10-02T00:04:56.459Z,1.57
2018-10-02T00:09:59.981Z,1.53
2018-10-02T00:15:03.839Z,1.70
2018-10-02T00:20:08.265Z,1.60
2018-10-02T00:25:12.834Z,1.40
2018-10-02T00:30:16.507Z,1.30
2018-10-02T00:35:20.017Z,1.53
2018-10-02T00:40:23.552Z,1.47
2018-10-02T00:45:27.322Z,2.00
2018-10-02T00:50:31.159Z,1.50
2018-10-02T00:55:35.368Z,1.90
2018-10-02T01:00:39.858Z,1.80
2018-10-02T01:05:43.354Z,2.10
2018-10-02T01:10:46.832Z,2.03
2018-10-02T01:15:50.505Z,2.67
2018-10-02T01:20:54.022Z,1.97
2018-10-02T01:25:57.510Z,2.47
2018-10-02T01:31:01.229Z,2.42
2018-10-02T01:36:06.290Z,1.72
2018-10-02T01:41:09.817Z,1.70
2018-10-02T01:46:13.261Z,2.03
2018-10-02T01:51:16.733Z,2.08
2018-10-02T01:56:20.261Z,1.73
2018-10-02T02:01:25.080Z,1.93
2018-10-02T02:06:28.808Z,1.63
2018-10-02T02:11:32.746Z,1.70
2018-10-02T02:16:36.538Z,1.90
2018-10-02T02:21:40.040Z,1.62
2018-10-02T02:26:43.478Z,1.70
2018-10-02T02:31:47.090Z,1.60
2018-10-02T02:36:50.580Z,1.80
2018-10-02T02:41:54.996Z,1.60
2018-10-02T02:47:04.393Z,1.33
2018-10-02T02:52:08.202Z,1.87
2018-10-02T02:57:12.454Z,1.60
2018-10-02T03:02:16.024Z,1.50
2018-10-02T03:07:19.826Z,1.73
2018-10-02T03:12:23.367Z,1.67
2018-10-02T03:17:27.474Z,1.20
2018-10-02T03:22:31.110Z,1.90
2018-10-02T03:27:35.736Z,2.00
2018-10-02T03:32:39.315Z,1.67
2018-10-02T03:37:43.075Z,1.60
2018-10-02T03:42:46.995Z,1.50
2018-10-02T03:47:50.514Z,1.72
2018-10-02T03:52:54.440Z,1.33
2018-10-02T03:57:58.072Z,1.50
2018-10-02T04:03:02.913Z,1.90
2018-10-02T04:08:06.496Z,1.53
2018-10-02T04:13:10.058Z,1.83
2018-10-02T04:18:13.674Z,1.53
2018-10-02T04:23:17.210Z,1.73
2018-10-02T04:28:20.968Z,1.90
2018-10-02T04:33:24.852Z,1.57
2018-10-02T04:38:28.540Z,1.53
2018-10-02T04:43:33.065Z,2.07
2018-10-02T04:48:36.521Z,1.60
2018-10-02T04:53:40.026Z,1.60
2018-10-02T04:58:43.560Z,1.70
2018-10-02T05:03:47.234Z,1.70
2018-10-02T05:08:51.622Z,1.80
2018-10-02T05:13:55.371Z,3.03
2018-10-02T05:18:59.594Z,1.80
2018-10-02T05:24:04.365Z,2.60
2018-10-02T05:29:07.977Z,3.10
2018-10-02T05:34:11.758Z,3.42
2018-10-02T05:39:15.611Z,2.93
2018-10-02T05:44:19.779Z,3.07
2018-10-02T05:49:23.827Z,2.40
2018-10-02T05:54:27.340Z,2.87
2018-10-02T05:59:31.011Z,3.10
2018-10-02T06:04:35.242Z,3.90
2018-10-02T06:09:38.730Z,3.75
2018-10-02T06:14:42.376Z,3.50
2018-10-02T06:19:45.944Z,3.63
2018-10-02T06:24:49.844Z,3.27
2018-10-02T06:29:53.528Z,3.80
2018-10-02T06:34:57.404Z,3.08
2018-10-02T06:40:01.238Z,2.37
2018-10-02T06:45:07.019Z,2.60
2018-10-02T06:50:10.882Z,2.70
2018-10-02T06:55:15.521Z,2.73
2018-10-02T07:00:18.997Z,2.90
2018-10-02T07:05:22.552Z,3.17
2018-10-02T07:10:26.489Z,3.60
2018-10-02T07:15:30.369Z,3.97
2018-10-02T07:20:34.692Z,3.90
2018-10-02T07:25:38.207Z,4.00
2018-10-02T07:30:42.091Z,4.10
2018-10-02T07:35:45.565Z,4.40
2018-10-02T07:40:49.126Z,3.00
2018-10-02T07:45:52.572Z,2.90
2018-10-02T07:50:56.244Z,2.60
2018-10-02T07:55:59.843Z,2.53
2018-10-02T08:01:03.428Z,2.47
2018-10-02T08:06:09.791Z,2.40
2018-10-02T08:11:23.023Z,2.43
2018-10-02T08:16:26.538Z,2.13
2018-10-02T08:21:30.082Z,2.80
2018-10-02T08:26:33.841Z,2.93
2018-10-02T08:31:37.326Z,1.90
2018-10-02T08:36:40.859Z,2.10
2018-10-02T08:41:44.518Z,1.70
2018-10-02T08:46:48.288Z,2.00
2018-10-02T08:51:51.992Z,1.20
2018-10-02T08:56:55.496Z,1.20
2018-10-02T09:01:58.947Z,1.53
2018-10-02T09:07:02.535Z,1.40
2018-10-02T09:12:06.045Z,1.17
2018-10-02T09:17:09.619Z,1.40
2018-10-02T09:22:13.734Z,1.35
2018-10-02T09:27:17.245Z,1.37
2018-10-02T09:32:26.531Z,1.10
2018-10-02T09:37:35.255Z,1.27
2018-10-02T09:42:44.158Z,1.33
2018-10-02T09:47:47.841Z,1.50
2018-10-02T09:52:51.764Z,2.13
2018-10-02T09:57:55.462Z,1.42
2018-10-02T10:02:58.997Z,1.40
2018-10-02T10:08:02.902Z,1.23
2018-10-02T10:13:06.439Z,1.60
2018-10-02T10:18:09.988Z,1.20
2018-10-02T10:23:13.680Z,1.30
2018-10-02T10:28:17.296Z,1.30
2018-10-02T10:33:21.154Z,1.10
2018-10-02T10:38:24.807Z,1.23
2018-10-02T10:43:28.625Z,1.42
2018-10-02T10:48:32.216Z,1.00
2018-10-02T10:53:35.756Z,0.80
2018-10-02T10:58:39.321Z,1.33
2018-10-02T11:03:42.890Z,0.80
2018-10-02T11:08:46.477Z,0.97
2018-10-02T11:13:50.244Z,1.00
2018-10-02T11:18:54.547Z,0.83
2018-10-02T11:23:58.249Z,1.00
2018-10-02T11:29:01.991Z,1.10
2018-10-02T11:34:05.504Z,1.30
2018-10-02T11:39:09.082Z,1.03
2018-10-02T11:44:13.017Z,1.07
2018-10-02T11:49:16.576Z,1.02
2018-10-02T11:54:20.269Z,1.17
2018-10-02T11:59:24.090Z,0.80
2018-10-02T12:04:27.612Z,0.93
2018-10-02T12:09:31.176Z,0.87
2018-10-02T12:14:34.659Z,0.73
2018-10-02T12:19:38.257Z,0.60
2018-10-02T12:24:41.661Z,1.30
2018-10-02T12:29:45.254Z,0.93
2018-10-02T12:34:48.798Z,0.83
2018-10-02T12:39:52.591Z,1.07
2018-10-02T12:44:56.328Z,0.90
2018-10-02T12:50:00.060Z,0.60
2018-10-02T12:55:03.818Z,0.93
2018-10-02T13:00:07.632Z,0.93
2018-10-02T13:05:11.146Z,0.80
2018-10-02T13:10:14.739Z,1.00
2018-10-02T13:15:18.229Z,0.80
2018-10-02T13:20:21.734Z,0.90
2018-10-02T13:25:25.659Z,1.47
2018-10-02T13:30:29.969Z,1.50
2018-10-02T13:35:33.743Z,1.10
2018-10-02T13:40:37.478Z,1.00
2018-10-02T13:45:41.042Z,1.20
2018-10-02T13:50:44.856Z,1.03
2018-10-02T13:55:48.534Z,1.00
2018-10-02T14:00:52.287Z,1.00
2018-10-02T14:05:56.816Z,1.07
2018-10-02T14:11:00.936Z,1.90
2018-10-02T14:16:04.437Z,0.93
2018-10-02T14:21:08.615Z,1.43
2018-10-02T14:26:12.184Z,1.20
2018-10-02T14:31:16.074Z,0.80
2018-10-02T14:36:19.809Z,2.87
2018-10-02T14:41:23.950Z,1.10
2018-10-02T14:46:28.112Z,0.80
2018-10-02T14:51:31.944Z,1.00
2018-10-02T14:56:35.573Z,0.80
2018-10-02T15:01:39.099Z,1.27
2018-10-02T15:06:42.674Z,0.73
2018-10-02T15:11:46.488Z,0.90
2018-10-02T15:16:51.244Z,0.90
2018-10-02T15:21:55.367Z,0.70
2018-10-02T15:26:59.323Z,0.90
2018-10-02T15:32:03.161Z,1.33
2018-10-02T15:37:07.241Z,0.83
2018-10-02T15:42:13.697Z,0.70
2018-10-02T15:47:17.366Z,0.70
2018-10-02T15:52:21.281Z,0.87
2018-10-02T15:57:25.180Z,1.20
2018-10-02T16:02:29.227Z,0.70
2018-10-02T16:07:33.759Z,0.80
2018-10-02T16:12:37.477Z,0.93
2018-10-02T16:17:41.996Z,0.80
2018-10-02T16:22:46.356Z,1.10
2018-10-02T16:27:50.413Z,1.03
2018-10-02T16:32:54.333Z,1.50
2018-10-02T16:37:58.149Z,1.00
2018-10-02T16:43:01.669Z,1.07
2018-10-02T16:48:05.965Z,0.90
2018-10-02T16:53:09.985Z,0.80
2018-10-02T16:58:49.529Z,0.87
2018-10-02T17:03:53.142Z,0.88
2018-10-02T17:08:56.605Z,1.10
2018-10-02T17:14:00.386Z,1.25
2018-10-02T17:19:03.997Z,0.80
2018-10-02T17:24:07.541Z,1.27
2018-10-02T17:29:11.115Z,0.80
2018-10-02T17:34:15.090Z,1.00
2018-10-02T17:39:19.027Z,0.90
2018-10-02T17:44:22.735Z,1.22
2018-10-02T17:49:26.241Z,0.95
2018-10-02T17:54:29.790Z,0.60
2018-10-02T17:59:33.338Z,0.90
2018-10-02T18:04:36.874Z,0.80
2018-10-02T18:15:18.993Z,0.77
2018-10-02T18:20:22.887Z,1.10
2018-10-02T18:25:26.426Z,0.97
2018-10-02T18:30:29.943Z,0.83
2018-10-02T18:35:33.655Z,1.13
2018-10-02T18:40:37.255Z,1.03
2018-10-02T18:45:40.959Z,1.00
2018-10-02T18:50:45.141Z,0.80
2018-10-02T18:55:49.220Z,0.90
2018-10-02T19:00:53.218Z,1.40
2018-10-02T19:05:57.496Z,1.30
2018-10-02T19:11:06.489Z,1.27
2018-10-02T19:16:26.024Z,1.40
2018-10-02T19:21:30.129Z,1.40
2018-10-02T19:26:33.886Z,1.30
2018-10-02T19:31:43.174Z,1.30
2018-10-02T19:36:47.121Z,1.10
2018-10-02T19:41:51.497Z,1.50
2018-10-02T19:46:56.453Z,1.10
2018-10-02T19:52:06.625Z,1.10
2018-10-02T19:57:12.145Z,1.20
2018-10-02T20:02:16.063Z,1.30
2018-10-02T20:07:19.717Z,1.20
2018-10-02T20:12:23.465Z,1.10
2018-10-02T20:17:27.196Z,1.27
2018-10-02T20:22:31.231Z,1.63
2018-10-02T20:27:35.874Z,1.25
2018-10-02T20:32:40.258Z,1.20
2018-10-02T20:37:45.034Z,1.10
2018-10-02T20:42:49.215Z,1.13
2018-10-02T20:47:53.279Z,1.67
2018-10-02T20:53:01.300Z,1.60
2018-10-02T20:58:09.877Z,2.03
2018-10-02T21:03:18.117Z,1.43
2018-10-02T21:08:22.837Z,1.32
2018-10-02T21:13:26.638Z,1.20
2018-10-02T21:18:30.260Z,1.30
2018-10-02T21:23:33.770Z,1.93
2018-10-02T21:28:37.434Z,1.30
2018-10-02T21:33:41.845Z,1.37
2018-10-02T21:38:45.508Z,1.33
2018-10-02T21:43:49.653Z,1.60
2018-10-02T21:48:53.488Z,1.03
2018-10-02T21:53:57.393Z,1.17
2018-10-02T21:59:01.476Z,1.30
2018-10-02T22:04:05.160Z,1.30
2018-10-02T22:09:10.060Z,1.47
2018-10-02T22:14:14.369Z,1.20
2018-10-02T22:19:18.285Z,1.20
2018-10-02T22:24:22.996Z,0.90
2018-10-02T22:29:26.693Z,1.27
2018-10-02T22:34:30.639Z,1.00
2018-10-02T22:39:34.206Z,1.00
2018-10-02T22:44:38.017Z,1.00
2018-10-02T22:49:42.041Z,0.90
2018-10-02T22:54:46.455Z,1.20
2018-10-02T22:59:50.425Z,1.10
2018-10-02T23:04:56.252Z,1.20
2018-10-02T23:09:59.922Z,1.13
2018-10-02T23:15:03.565Z,0.93
2018-10-02T23:20:07.220Z,1.30
2018-10-02T23:25:10.777Z,1.27
2018-10-02T23:30:14.426Z,1.00
2018-10-02T23:35:17.990Z,1.27
2018-10-02T23:40:21.820Z,1.50
2018-10-02T23:45:25.660Z,1.73
2018-10-02T23:50:29.810Z,0.97
2018-10-02T23:55:34.199Z,0.93
